메인 페이지
METAR-TAF:

METAR-TAF

공항 :

Dalhart Municipal Airport

Dalhart, 텍사스, 미국

위도: 36-01-24N, 경도: 102-32-50W, 고도: 1216m

현재 날씨관측

예보는 7분 전, 22:53시(UTC)에 발표되었습니다.
동북동24kt, 순간 최대 풍속 35kt
온도 33°C
습도 21%
기압 1015 hPa
시정: 14.5km
맑음
시계 내 뇌우

METAR: KDHT 132253Z AUTO 07024G35KT 9SM VCTS CLR 33/08 A2998 RMK AO2 PK WND 07035/2251 LTG DSNT ALQDS SLP086 T03280083

시각: 18:00 (23:00 UTC)

예보

예보는 39분 전, 22:21시(UTC)에 발표되었습니다.
예보 대상 시간: 13일 22시부터 14일 18시까지 (UTC)
남남서20kt, 순간 최대 풍속 30kt
시정: 10km
고도 25000ft 상공 구름 보통, 적란운.
시계 내 뇌우
14일 0000시부터 (UTC)
남남동10kt
시정: 10km
고도 25000ft 상공 구름 조금
14일 1600시부터 (UTC)
10kt
시정: 10km
고도 22000ft 상공 구름 조금

TAF: KDHT 132221Z 1322/1418 20020G30KT P6SM VCTS SCT250CB FM140000 16010KT P6SM FEW250 FM141600 19010KT P6SM FEW220

4,000개 이상의 공항 관측 자료 및 예보 (METAR 및 TAF 보고).

지도상에서 검색 가능한 기상관측소가 노란 점과 빨간 점으로 표시되어 있습니다.

기상관측소 명을 보려면 표시 위로 마우스를 이동하세요.

날씨 관측과 예보를 보려면 클릭하세요.

지도 변경 : 확대하려면 엑스 표시가 있는 녹색 버튼, 축소하려면 빼기 표시가 있는 녹색 버튼, 다음 페이지의 지도를 보려면 녹색 화살표를 클릭하세요.


METAR-TAF: